Time;durP1;ratioP1;P1;durP2;ratioP2;P2;SDS_P1;SDS_P2;PMS_P1;PMS_P2;Temp;Humidity;BMP_temperature;BMP_pressure;BME280_temperature;BME280_humidity;BME280_pressure;Samples;Min_cycle;Max_cycle;Signal;HPM_P1;HPM_P2
2022/02/05 00:00:34;;;;;;;0.50;0.47;;;;;;;6.27;85.45;96258.69;5038026;28;20228;-68
2022/02/05 00:03:15;;;;;;;0.70;0.70;;;;;;;6.41;85.65;96262.59;5036113;28;20208;-69
2022/02/05 00:05:48;;;;;;;0.20;0.20;;;;;;;6.33;85.24;96286.06;5035848;28;20286;-68
2022/02/05 00:08:33;;;;;;;0.30;0.30;;;;;;;6.36;85.16;96281.34;5037491;28;20229;-68
2022/02/05 00:11:21;;;;;;;0.57;0.37;;;;;;;6.43;85.17;96287.63;5037098;28;20201;-69
2022/02/05 00:38:16;;;;;;;0.40;0.40;;;;;;;6.04;89.26;96347.41;5035643;28;20772;-69
2022/02/05 00:38:58;;;;;;;1.43;0.40;;;;;;;6.15;89.97;96332.34;5036279;28;20312;-68
2022/02/05 00:41:28;;;;;;;0.40;0.40;;;;;;;5.93;89.94;96352.84;5036726;28;20228;-70
2022/02/05 00:43:57;;;;;;;0.77;0.50;;;;;;;5.85;89.74;96365.81;5035801;28;20205;-70
2022/02/05 00:46:26;;;;;;;0.40;0.40;;;;;;;5.96;88.77;96357.75;5036379;28;20205;-68
2022/02/05 00:48:53;;;;;;;1.03;0.40;;;;;;;5.85;89.32;96364.03;5036426;28;20609;-68
2022/02/05 00:51:24;;;;;;;0.50;0.50;;;;;;;6.03;89.64;96359.66;5036224;28;20197;-69
2022/02/05 00:54:03;;;;;;;0.50;0.50;;;;;;;6.02;89.85;96357.19;5035585;28;20315;-68
2022/02/05 00:56:49;;;;;;;0.20;0.20;;;;;;;5.78;90.31;96354.28;5035585;28;20250;-70
2022/02/05 00:59:18;;;;;;;0.47;0.47;;;;;;;5.80;91.50;96362.81;5035806;28;20316;-69
2022/02/05 01:01:45;;;;;;;1.70;0.97;;;;;;;5.75;91.17;96383.31;5035744;28;20567;-69
2022/02/05 01:04:11;;;;;;;0.50;0.50;;;;;;;5.80;91.10;96381.94;5035528;28;20993;-69
2022/02/05 01:06:38;;;;;;;0.40;0.40;;;;;;;5.50;90.54;96382.16;5035991;28;20204;-69
2022/02/05 01:09:12;;;;;;;0.30;0.30;;;;;;;5.56;90.24;96384.22;5035729;28;20217;-68
2022/02/05 01:11:39;;;;;;;0.77;0.43;;;;;;;5.43;88.61;96394.19;5036428;28;20193;-69
2022/02/05 01:14:08;;;;;;;0.37;0.37;;;;;;;5.40;87.95;96396.25;5035222;28;20201;-69
2022/02/05 01:16:47;;;;;;;0.40;0.40;;;;;;;5.39;87.40;96406.84;5036922;28;20201;-69
2022/02/05 01:19:30;;;;;;;0.30;0.30;;;;;;;5.17;86.57;96412.41;5040946;28;20224;-68
2022/02/05 01:21:58;;;;;;;0.33;0.33;;;;;;;5.14;86.51;96423.09;5040059;28;20600;-68
2022/02/05 01:24:26;;;;;;;0.30;0.30;;;;;;;5.13;86.13;96427.50;5039256;28;20236;-68
2022/02/05 01:26:59;;;;;;;0.40;0.40;;;;;;;5.22;85.38;96437.13;5040042;28;20200;-69
2022/02/05 01:29:34;;;;;;;0.30;0.30;;;;;;;5.22;85.41;96446.72;5039749;28;20311;-69
2022/02/05 01:32:05;;;;;;;0.50;0.50;;;;;;;4.99;85.78;96442.75;5039134;28;21197;-68
2022/02/05 01:34:38;;;;;;;0.40;0.40;;;;;;;4.86;85.86;96444.81;5040141;28;20591;-68
2022/02/05 01:50:58;;;;;;;0.50;0.37;;;;;;;4.60;85.85;96469.00;5040056;28;20199;-69
2022/02/05 01:53:32;;;;;;;1.13;0.50;;;;;;;4.60;86.05;96461.19;5038952;28;20197;-69
2022/02/05 01:56:22;;;;;;;0.47;0.47;;;;;;;4.70;85.94;96462.84;5038841;28;20205;-69
2022/02/05 02:07:11;;;;;;;2.10;0.80;;;;;;;4.44;86.39;96479.13;5039112;28;20651;-69
2022/02/05 02:10:00;;;;;;;0.40;0.40;;;;;;;4.31;86.77;96483.75;5039524;28;20313;-69
2022/02/05 02:12:38;;;;;;;0.53;0.53;;;;;;;4.45;86.61;96486.00;5038741;28;20207;-69
2022/02/05 02:15:12;;;;;;;0.40;0.40;;;;;;;4.35;86.63;96495.56;5039459;28;20214;-69
2022/02/05 02:18:13;;;;;;;0.40;0.40;;;;;;;4.43;86.33;96498.34;5039131;28;20320;-69
2022/02/05 02:20:54;;;;;;;0.80;0.80;;;;;;;4.45;86.14;96509.47;5038998;28;20219;-69
2022/02/05 02:23:33;;;;;;;1.10;0.87;;;;;;;4.35;86.79;96519.06;5038093;28;20201;-69
2022/02/05 02:26:07;;;;;;;0.67;0.60;;;;;;;4.20;86.59;96512.56;5038711;28;20211;-68
2022/02/05 02:28:43;;;;;;;1.90;0.73;;;;;;;4.33;85.87;96518.38;5037625;28;20230;-70
2022/02/05 02:31:16;;;;;;;1.50;0.73;;;;;;;4.37;86.03;96520.56;5040228;28;20208;-69
2022/02/05 02:33:47;;;;;;;0.57;0.57;;;;;;;4.25;85.79;96528.63;5037818;28;20300;-70
2022/02/05 02:36:23;;;;;;;0.93;0.70;;;;;;;4.18;86.28;96532.72;5038666;28;20216;-69
2022/02/05 02:38:54;;;;;;;1.13;0.57;;;;;;;4.29;86.62;96525.63;5038767;28;20220;-69
2022/02/05 02:41:26;;;;;;;0.87;0.80;;;;;;;3.93;87.08;96532.34;5039185;28;20303;-70
2022/02/05 02:43:53;;;;;;;1.03;0.80;;;;;;;4.13;86.86;96532.28;5037156;28;20208;-70
2022/02/05 02:46:20;;;;;;;0.80;0.60;;;;;;;4.07;86.79;96532.81;5038259;28;20208;-69
2022/02/05 02:48:48;;;;;;;0.60;0.57;;;;;;;3.88;87.19;96539.72;5038047;28;20238;-69
2022/02/05 02:56:54;;;;;;;0.50;0.50;;;;;;;4.22;86.22;96554.97;5038453;28;20208;-69
2022/02/05 02:59:25;;;;;;;1.07;1.00;;;;;;;4.14;85.72;96559.19;5037414;28;20217;-69
2022/02/05 03:01:58;;;;;;;8.90;0.80;;;;;;;4.10;85.97;96558.66;5038526;28;20593;-69
2022/02/05 03:04:24;;;;;;;0.57;0.57;;;;;;;4.03;86.41;96561.91;5036457;28;20733;-69
2022/02/05 03:06:51;;;;;;;2.93;0.73;;;;;;;4.06;86.67;96557.25;5038499;28;20226;-69
2022/02/05 03:09:19;;;;;;;0.40;0.40;;;;;;;4.22;87.00;96558.41;5038098;28;20232;-68
2022/02/05 03:11:45;;;;;;;1.33;0.97;;;;;;;4.00;87.34;96565.59;5037823;28;20201;-70
2022/02/05 03:14:12;;;;;;;0.60;0.60;;;;;;;4.09;87.47;96562.19;5037192;28;20216;-69
2022/02/05 03:16:38;;;;;;;1.10;0.53;;;;;;;4.20;86.98;96579.53;5038418;28;20201;-69
2022/02/05 03:19:12;;;;;;;0.60;0.60;;;;;;;4.20;86.87;96577.78;5037550;28;20223;-70
2022/02/05 03:21:38;;;;;;;3.67;0.60;;;;;;;4.32;86.27;96584.53;5037902;28;21032;-69
2022/02/05 03:24:06;;;;;;;0.60;0.60;;;;;;;4.55;85.34;96586.81;5037104;28;20201;-69
2022/02/05 03:26:35;;;;;;;1.47;0.70;;;;;;;4.62;85.76;96592.34;5038355;28;20201;-69
2022/02/05 03:29:05;;;;;;;0.93;0.73;;;;;;;4.46;85.22;96594.63;5037292;28;20320;-70
2022/02/05 03:31:31;;;;;;;0.97;0.97;;;;;;;4.52;85.25;96600.16;5038010;28;20193;-69
2022/02/05 03:33:58;;;;;;;2.23;2.03;;;;;;;4.39;85.05;96601.31;5037192;28;20205;-69
2022/02/05 03:36:24;;;;;;;1.17;0.70;;;;;;;4.14;86.02;96596.53;5036902;28;20869;-69
2022/02/05 03:38:51;;;;;;;0.50;0.50;;;;;;;4.05;85.97;96602.53;5037603;28;20232;-69
2022/02/05 03:41:17;;;;;;;1.17;0.73;;;;;;;3.99;85.60;96602.22;5038334;28;20256;-69
2022/02/05 03:43:45;;;;;;;0.53;0.53;;;;;;;4.08;84.74;96601.44;5036762;28;20201;-69
2022/02/05 03:46:11;;;;;;;0.93;0.57;;;;;;;3.98;84.57;96606.59;5036885;28;20204;-70
2022/02/05 03:48:38;;;;;;;0.73;0.60;;;;;;;3.86;83.75;96607.63;5038155;28;20584;-68
2022/02/05 03:51:04;;;;;;;0.60;0.60;;;;;;;3.70;83.12;96615.06;5037258;28;20947;-69
2022/02/05 03:53:31;;;;;;;0.40;0.40;;;;;;;3.76;82.28;96611.94;5036033;28;20744;-69
2022/02/05 03:58:30;;;;;;;0.50;0.50;;;;;;;3.66;81.52;96610.22;5034674;28;20313;-69
2022/02/05 04:00:58;;;;;;;0.57;0.57;;;;;;;3.79;80.26;96616.91;5037099;28;20229;-69
2022/02/05 04:03:25;;;;;;;0.30;0.30;;;;;;;3.51;80.65;96632.31;5036796;28;20208;-69
2022/02/05 04:05:51;;;;;;;0.40;0.40;;;;;;;3.53;80.47;96634.81;5037262;28;20673;-69
2022/02/05 04:08:18;;;;;;;2.03;1.37;;;;;;;3.52;80.00;96644.41;5036833;28;20702;-69
2022/02/05 04:10:48;;;;;;;0.60;0.60;;;;;;;3.37;80.44;96644.81;5037270;28;20197;-68
2022/02/05 04:16:10;;;;;;;0.63;0.63;;;;;;;3.56;80.21;96653.59;5036452;28;21187;-69
2022/02/05 04:18:36;;;;;;;0.60;0.60;;;;;;;3.55;79.25;96658.94;5036630;28;20224;-68
2022/02/05 04:21:05;;;;;;;6.70;0.80;;;;;;;3.66;79.30;96657.94;5036959;28;20228;-69
2022/02/05 04:23:31;;;;;;;0.63;0.60;;;;;;;3.53;78.73;96664.28;5036542;28;20201;-69
2022/02/05 04:25:58;;;;;;;3.77;1.10;;;;;;;3.37;79.21;96666.47;5036879;28;20231;-69
2022/02/05 04:28:25;;;;;;;0.20;0.20;;;;;;;3.50;78.74;96676.72;5036440;28;20221;-68
2022/02/05 04:30:51;;;;;;;0.50;0.50;;;;;;;3.54;78.56;96685.94;5036809;28;20676;-70
2022/02/05 04:33:19;;;;;;;0.40;0.40;;;;;;;3.52;79.04;96680.88;5035979;28;20677;-69
2022/02/05 04:35:46;;;;;;;0.40;0.40;;;;;;;3.50;78.98;96692.34;5036460;28;20208;-69
2022/02/05 04:38:13;;;;;;;0.30;0.30;;;;;;;3.78;78.10;96688.22;5036811;28;20275;-70
2022/02/05 04:40:44;;;;;;;1.47;0.77;;;;;;;3.64;78.22;96682.50;5036459;28;20729;-69
2022/02/05 04:43:22;;;;;;;0.30;0.30;;;;;;;3.49;78.57;96690.69;5035962;28;20225;-69
2022/02/05 04:49:17;;;;;;;3.40;0.83;;;;;;;3.74;78.33;96697.25;5011248;28;20317;-69
2022/02/05 04:52:10;;;;;;;0.77;0.50;;;;;;;3.59;78.16;96705.50;5036276;28;20208;-69
2022/02/05 04:54:59;;;;;;;0.97;0.50;;;;;;;3.67;77.76;96708.31;5035790;28;20250;-70
2022/02/05 04:57:40;;;;;;;0.90;0.90;;;;;;;3.59;78.17;96708.09;5035385;28;21151;-70
2022/02/05 05:00:21;;;;;;;0.90;0.90;;;;;;;3.68;77.87;96713.38;5036235;28;20219;-70
2022/02/05 05:06:02;;;;;;;0.43;0.43;;;;;;;3.61;78.42;96721.00;5011457;28;20316;-69
2022/02/05 05:08:40;;;;;;;1.63;0.70;;;;;;;3.59;78.30;96722.88;5035896;28;20225;-69
2022/02/05 05:19:35;;;;;;;0.83;0.70;;;;;;;3.41;78.45;96729.56;5035373;28;20271;-69
2022/02/05 05:22:04;;;;;;;1.40;0.77;;;;;;;3.62;78.25;96731.28;5036288;28;20378;-69
2022/02/05 05:24:31;;;;;;;1.00;0.90;;;;;;;3.49;78.54;96732.38;5035907;28;20201;-69
2022/02/05 05:26:57;;;;;;;1.50;0.90;;;;;;;3.26;78.55;96738.59;5036339;28;20208;-69
2022/02/05 05:29:24;;;;;;;0.80;0.80;;;;;;;3.37;78.47;96739.38;5035797;28;20221;-69
2022/02/05 05:31:51;;;;;;;0.87;0.77;;;;;;;3.49;78.23;96748.00;5036288;28;20223;-68
2022/02/05 05:34:17;;;;;;;0.80;0.80;;;;;;;3.54;77.92;96745.88;5035314;28;20205;-69
2022/02/05 05:36:44;;;;;;;0.33;0.33;;;;;;;3.52;77.77;96748.59;5036391;28;20197;-69
2022/02/05 05:39:13;;;;;;;0.70;0.57;;;;;;;3.68;78.08;96751.66;5035660;28;20228;-69
2022/02/05 05:41:40;;;;;;;1.50;0.80;;;;;;;3.47;78.00;96755.13;5036047;28;20225;-69
2022/02/05 05:44:31;;;;;;;0.63;0.60;;;;;;;3.51;77.53;96757.34;5035202;28;20291;-69
2022/02/05 05:47:15;;;;;;;0.77;0.77;;;;;;;3.53;77.50;96758.09;5035561;28;20216;-69
2022/02/05 05:49:57;;;;;;;0.47;0.47;;;;;;;3.70;77.28;96761.00;5036044;28;20786;-69
2022/02/05 05:52:25;;;;;;;0.80;0.70;;;;;;;3.64;77.43;96758.88;5035416;28;20197;-69
2022/02/05 05:54:52;;;;;;;2.30;0.50;;;;;;;3.74;77.92;96765.03;5035977;28;20371;-68
2022/02/05 05:57:19;;;;;;;0.60;0.60;;;;;;;3.43;77.41;96769.34;5036047;28;20202;-69
2022/02/05 05:59:46;;;;;;;0.53;0.53;;;;;;;3.61;77.53;96766.09;5035032;28;20228;-70
2022/02/05 06:02:13;;;;;;;5.70;0.70;;;;;;;3.67;77.70;96771.66;5035878;28;20225;-70
2022/02/05 06:04:39;;;;;;;16.07;6.73;;;;;;;3.60;77.86;96779.25;5039964;28;20193;-69
2022/02/05 06:07:07;;;;;;;21.90;7.37;;;;;;;3.54;78.90;96782.34;5039661;28;21193;-69
2022/02/05 06:09:35;;;;;;;12.47;4.50;;;;;;;3.38;79.43;96782.72;5038735;28;20658;-69
2022/02/05 06:12:04;;;;;;;10.60;6.37;;;;;;;3.42;79.73;96778.13;5039570;28;20610;-69
2022/02/05 06:14:30;;;;;;;20.37;7.00;;;;;;;3.11;81.07;96781.47;5035993;28;20205;-69
2022/02/05 06:17:03;;;;;;;12.47;5.50;;;;;;;3.23;81.29;96775.28;5039408;28;20201;-70
2022/02/05 06:19:29;;;;;;;23.97;7.83;;;;;;;3.11;81.06;96771.03;5038550;28;20620;-69
2022/02/05 06:21:56;;;;;;;8.73;3.10;;;;;;;2.82;81.69;96774.25;5039105;28;20594;-69
2022/02/05 06:24:22;;;;;;;5.60;3.13;;;;;;;2.90;82.39;96774.47;5037886;28;20947;-69
2022/02/05 06:26:48;;;;;;;1.17;1.07;;;;;;;2.97;82.29;96779.09;5038975;28;20696;-69
2022/02/05 06:29:16;;;;;;;1.30;1.17;;;;;;;3.08;82.45;96784.28;5038981;28;20590;-69
2022/02/05 06:31:43;;;;;;;9.17;3.53;;;;;;;3.01;82.93;96779.69;5038989;28;20198;-69
2022/02/05 06:34:10;;;;;;;3.93;2.33;;;;;;;2.94;82.69;96784.53;5038272;28;20215;-69
2022/02/05 06:36:37;;;;;;;1.50;1.40;;;;;;;3.01;82.39;96790.09;5038921;28;20205;-70
2022/02/05 06:39:03;;;;;;;4.87;2.27;;;;;;;2.92;82.79;96783.81;5038447;28;20316;-69
2022/02/05 06:41:30;;;;;;;8.33;2.93;;;;;;;2.81;83.39;96794.22;5038235;28;20231;-69
2022/02/05 06:43:56;;;;;;;2.47;1.90;;;;;;;2.81;82.86;96798.59;5038728;28;20227;-68
2022/02/05 06:46:24;;;;;;;1.20;0.80;;;;;;;2.89;83.48;96804.88;5038708;28;20213;-69
2022/02/05 06:48:50;;;;;;;0.90;0.90;;;;;;;2.94;82.78;96800.16;5038721;28;20221;-69
2022/02/05 06:51:17;;;;;;;1.80;1.20;;;;;;;2.68;83.21;96819.50;5038394;28;20211;-69
2022/02/05 06:53:43;;;;;;;2.03;1.20;;;;;;;2.91;82.92;96818.59;5038449;28;20199;-69
2022/02/05 06:56:10;;;;;;;4.33;1.83;;;;;;;3.06;82.42;96820.84;5038129;28;20254;-69
2022/02/05 06:58:36;;;;;;;17.80;3.03;;;;;;;2.91;82.05;96828.19;5037732;28;20221;-69
2022/02/05 07:01:03;;;;;;;2.23;1.60;;;;;;;3.08;81.95;96825.94;5038402;28;20200;-69
2022/02/05 07:03:31;;;;;;;2.77;1.40;;;;;;;3.05;82.91;96823.56;5037464;28;20208;-69
2022/02/05 07:05:57;;;;;;;2.97;2.13;;;;;;;3.06;81.85;96823.47;5038149;28;20201;-69
2022/02/05 07:08:23;;;;;;;9.80;2.93;;;;;;;2.80;82.91;96828.16;5038679;28;20631;-69
2022/02/05 07:10:51;;;;;;;6.93;2.03;;;;;;;2.88;83.12;96833.59;5037667;28;21125;-69
2022/02/05 07:13:20;;;;;;;0.90;0.90;;;;;;;2.85;82.80;96842.50;5036344;28;20207;-69
2022/02/05 07:15:54;;;;;;;1.03;0.60;;;;;;;3.14;83.07;96838.50;5037044;28;20211;-69
2022/02/05 07:18:28;;;;;;;1.97;1.43;;;;;;;3.16;81.74;96844.44;5037591;28;20230;-69
2022/02/05 07:21:04;;;;;;;4.47;2.27;;;;;;;3.48;81.30;96848.78;5038491;28;20205;-69
2022/02/05 07:23:44;;;;;;;6.70;2.37;;;;;;;3.32;81.16;96848.34;5037036;28;20592;-69
2022/02/05 07:29:13;;;;;;;0.90;0.90;;;;;;;3.20;81.41;96866.69;5037816;28;20232;-69
2022/02/05 07:31:42;;;;;;;19.23;1.30;;;;;;;2.95;81.75;96864.25;5037594;28;20215;-69
2022/02/05 07:34:08;;;;;;;4.87;1.63;;;;;;;3.24;81.69;96865.50;5036949;28;20208;-69
2022/02/05 07:36:36;;;;;;;12.80;1.53;;;;;;;3.45;81.80;96874.25;5037702;28;20208;-69
2022/02/05 07:39:06;;;;;;;2.10;1.90;;;;;;;3.62;80.43;96865.97;5035679;28;20219;-69
2022/02/05 07:41:32;;;;;;;2.33;1.53;;;;;;;3.42;81.24;96864.06;5038002;28;20237;-69
2022/02/05 07:43:59;;;;;;;0.77;0.73;;;;;;;3.50;80.56;96869.50;5036657;28;20590;-69
2022/02/05 07:46:26;;;;;;;5.43;1.80;;;;;;;3.39;80.91;96877.34;5037654;28;20205;-69
2022/02/05 07:48:53;;;;;;;1.20;1.10;;;;;;;3.43;81.80;96884.78;5037419;28;20235;-69
2022/02/05 07:51:20;;;;;;;1.97;1.30;;;;;;;3.53;81.67;96879.72;5037555;28;20583;-69
2022/02/05 07:53:48;;;;;;;0.83;0.83;;;;;;;3.71;81.82;96884.31;5036420;28;20205;-69
2022/02/05 07:56:15;;;;;;;1.77;1.30;;;;;;;3.80;80.65;96887.00;5037547;28;20216;-69
2022/02/05 07:58:41;;;;;;;2.40;1.40;;;;;;;3.71;80.57;96900.75;5036618;28;20227;-69
2022/02/05 08:01:07;;;;;;;3.37;1.43;;;;;;;3.77;80.21;96900.28;5035778;28;20192;-69
2022/02/05 08:03:34;;;;;;;1.03;0.87;;;;;;;3.58;80.61;96898.41;5036358;28;20225;-69
2022/02/05 08:06:03;;;;;;;0.60;0.60;;;;;;;3.63;80.79;96907.53;5036703;28;20232;-69
2022/02/05 08:08:32;;;;;;;0.67;0.67;;;;;;;3.65;80.75;96906.47;5036304;28;20223;-69
2022/02/05 08:11:04;;;;;;;0.50;0.50;;;;;;;3.62;81.24;96909.28;5036636;28;20559;-69
2022/02/05 08:13:32;;;;;;;2.50;1.43;;;;;;;3.62;81.29;96917.09;5035256;28;20235;-69
2022/02/05 08:16:10;;;;;;;1.27;1.17;;;;;;;3.80;79.97;96918.28;5036366;28;20291;-69
2022/02/05 08:18:38;;;;;;;1.03;0.93;;;;;;;3.78;79.75;96919.34;5036136;28;20230;-69
2022/02/05 08:21:05;;;;;;;2.83;1.40;;;;;;;3.82;79.03;96916.41;5037382;28;20337;-69
2022/02/05 08:23:32;;;;;;;0.77;0.77;;;;;;;3.92;78.57;96930.38;5036079;28;20225;-69
2022/02/05 08:26:00;;;;;;;3.20;1.93;;;;;;;4.08;78.67;96920.38;5035667;28;20291;-69
2022/02/05 08:28:27;;;;;;;5.03;1.27;;;;;;;3.93;78.88;96932.00;5036289;28;20225;-69
2022/02/05 08:30:54;;;;;;;0.90;0.90;;;;;;;3.67;79.26;96941.03;5036945;28;20806;-69
2022/02/05 08:33:21;;;;;;;4.63;1.67;;;;;;;3.85;78.78;96938.78;5035542;28;20556;-69
2022/02/05 08:35:49;;;;;;;1.40;0.90;;;;;;;3.68;79.30;96936.69;5037182;28;21141;-69
2022/02/05 08:38:16;;;;;;;4.07;2.07;;;;;;;3.94;79.11;96941.50;5036034;28;20232;-69
2022/02/05 08:40:42;;;;;;;2.30;1.47;;;;;;;4.03;78.73;96935.56;5036343;28;20197;-69
2022/02/05 08:43:10;;;;;;;1.13;1.07;;;;;;;4.47;77.89;96932.88;5035804;28;20224;-68
2022/02/05 08:45:37;;;;;;;2.60;1.20;;;;;;;4.45;77.42;96934.78;5036389;28;20208;-68
2022/02/05 08:48:04;;;;;;;3.93;1.40;;;;;;;4.50;77.64;96945.66;5035603;28;20224;-68
2022/02/05 08:50:31;;;;;;;1.23;0.90;;;;;;;4.58;77.25;96948.47;5035692;28;20209;-68
2022/02/05 08:52:58;;;;;;;2.13;1.00;;;;;;;4.56;77.44;96951.22;5035783;28;20200;-69
2022/02/05 08:55:28;;;;;;;1.87;1.27;;;;;;;4.67;76.17;96951.19;5035830;28;20974;-69
2022/02/05 08:57:55;;;;;;;1.83;0.83;;;;;;;4.60;76.34;96955.25;5036572;28;20198;-68
2022/02/05 09:00:26;;;;;;;1.07;0.77;;;;;;;4.62;75.72;96947.28;5035567;28;20760;-69
2022/02/05 09:03:00;;;;;;;4.47;1.63;;;;;;;4.42;75.85;96948.88;5035835;28;20223;-69
2022/02/05 09:05:38;;;;;;;0.90;0.70;;;;;;;4.78;75.09;96950.31;5036272;28;20231;-69
2022/02/05 09:08:10;;;;;;;1.87;1.40;;;;;;;4.91;75.02;96960.47;5036051;28;20262;-68
2022/02/05 09:10:51;;;;;;;5.30;1.93;;;;;;;5.17;73.96;96958.34;5036364;28;20201;-69
2022/02/05 09:13:37;;;;;;;4.93;2.30;;;;;;;5.17;73.25;96960.94;5034051;28;20229;-68
2022/02/05 09:16:07;;;;;;;0.50;0.50;;;;;;;5.21;73.04;96957.94;5036912;28;20205;-68
2022/02/05 09:18:34;;;;;;;5.00;1.10;;;;;;;5.12;73.08;96948.25;5035919;28;20248;-68
2022/02/05 09:21:01;;;;;;;0.97;0.53;;;;;;;5.19;72.60;96953.78;5035343;28;20209;-69
2022/02/05 09:23:28;;;;;;;1.73;1.53;;;;;;;5.16;73.39;96964.50;5035697;28;20221;-68
2022/02/05 09:25:54;;;;;;;1.07;1.00;;;;;;;4.86;73.07;96957.41;5036613;28;20201;-68
2022/02/05 09:28:22;;;;;;;21.83;1.70;;;;;;;5.20;73.13;96963.28;5035724;28;20228;-68
2022/02/05 09:31:02;;;;;;;5.70;1.57;;;;;;;5.31;72.50;96974.50;5035899;28;20304;-70
2022/02/05 09:33:30;;;;;;;1.07;0.73;;;;;;;5.15;72.43;96974.09;5035395;28;20707;-69
2022/02/05 09:35:56;;;;;;;3.00;1.53;;;;;;;5.20;72.97;96973.75;5035862;28;20205;-69
2022/02/05 09:38:23;;;;;;;2.57;1.07;;;;;;;5.18;71.68;96975.63;5037936;28;20220;-68
2022/02/05 09:40:49;;;;;;;4.17;1.40;;;;;;;5.23;71.58;96979.56;5040008;28;20253;-69
2022/02/05 09:43:16;;;;;;;3.10;1.57;;;;;;;5.13;72.45;96981.25;5038697;28;20220;-69
2022/02/05 09:45:42;;;;;;;3.17;1.10;;;;;;;5.44;72.86;96975.97;5039757;28;20889;-68
2022/02/05 09:48:09;;;;;;;0.97;0.80;;;;;;;5.34;71.06;96978.66;5039784;28;20228;-69
2022/02/05 09:50:37;;;;;;;1.20;1.10;;;;;;;5.72;72.15;96985.75;5039779;28;20204;-69
2022/02/05 09:53:13;;;;;;;2.30;1.50;;;;;;;6.10;71.26;96971.09;5038990;28;20212;-68
2022/02/05 09:55:40;;;;;;;5.27;1.63;;;;;;;6.34;69.91;96966.38;5040778;28;21035;-68
2022/02/05 09:58:06;;;;;;;3.40;0.90;;;;;;;6.04;70.21;96975.22;5039616;28;20244;-69
2022/02/05 10:00:34;;;;;;;2.60;0.93;;;;;;;5.78;69.39;96973.97;5039550;28;20197;-68
2022/02/05 10:03:02;;;;;;;0.70;0.70;;;;;;;5.61;70.35;96980.63;5038765;28;20229;-69
2022/02/05 10:05:32;;;;;;;9.83;0.80;;;;;;;5.86;70.06;96966.34;5039565;28;20201;-68
2022/02/05 10:08:03;;;;;;;13.83;0.80;;;;;;;6.20;69.31;96974.59;5039648;28;20237;-69
2022/02/05 10:10:39;;;;;;;0.77;0.77;;;;;;;6.01;68.72;96965.00;5039474;28;20743;-69
2022/02/05 10:13:07;;;;;;;8.20;1.50;;;;;;;6.23;68.87;96969.06;5038579;28;20196;-69
2022/02/05 10:15:35;;;;;;;2.27;1.07;;;;;;;6.22;68.24;96979.69;5036457;28;20205;-69
2022/02/05 10:18:03;;;;;;;3.30;1.17;;;;;;;6.21;68.94;96971.03;5039777;28;20212;-69
2022/02/05 10:20:31;;;;;;;0.47;0.47;;;;;;;6.64;68.54;96968.91;5039435;28;20895;-70
2022/02/05 10:23:09;;;;;;;0.90;0.43;;;;;;;6.59;67.52;96970.28;5038763;28;20249;-67
2022/02/05 10:25:36;;;;;;;0.30;0.30;;;;;;;5.85;68.43;96969.91;5039850;28;20291;-68
2022/02/05 10:28:09;;;;;;;1.13;1.03;;;;;;;5.98;68.89;96965.28;5038673;28;20224;-69
2022/02/05 10:30:35;;;;;;;6.60;1.07;;;;;;;5.87;68.84;96968.81;5039467;28;20212;-68
2022/02/05 10:33:08;;;;;;;0.70;0.70;;;;;;;5.99;68.70;96966.94;5037619;28;20248;-69
2022/02/05 10:35:43;;;;;;;2.10;0.63;;;;;;;6.12;68.86;96966.59;5038704;28;20205;-69
2022/02/05 10:38:32;;;;;;;7.00;0.97;;;;;;;6.16;68.55;96967.97;5038527;28;20369;-69
2022/02/05 10:43:45;;;;;;;1.87;1.03;;;;;;;6.31;68.02;96966.66;5037176;28;20225;-69
2022/02/05 10:46:12;;;;;;;2.23;1.07;;;;;;;6.43;66.83;96972.56;5038399;28;20311;-69
2022/02/05 10:48:41;;;;;;;0.30;0.30;;;;;;;6.93;66.46;96967.16;5037861;28;20228;-69
2022/02/05 10:51:08;;;;;;;1.20;1.03;;;;;;;6.60;66.32;96964.09;5038085;28;20313;-69
2022/02/05 10:53:41;;;;;;;0.80;0.50;;;;;;;6.64;66.28;96966.28;5038209;28;20194;-69
2022/02/05 10:56:12;;;;;;;1.23;0.60;;;;;;;6.69;65.90;96958.84;5038048;28;20695;-69
2022/02/05 10:58:58;;;;;;;3.50;1.03;;;;;;;6.40;65.40;96958.00;5038361;28;20221;-69
2022/02/05 11:07:03;;;;;;;2.13;1.10;;;;;;;6.49;65.24;96951.09;5038535;28;20263;-69
2022/02/05 11:09:31;;;;;;;8.03;1.30;;;;;;;6.63;66.00;96945.47;5038708;28;20225;-69
2022/02/05 11:20:23;;;;;;;3.17;0.90;;;;;;;7.32;64.40;96954.72;5037680;28;20705;-70
2022/02/05 11:22:51;;;;;;;2.43;0.60;;;;;;;7.32;64.58;96959.16;5037098;28;20235;-69
2022/02/05 11:25:22;;;;;;;6.03;1.23;;;;;;;7.15;64.17;96959.00;5037460;28;20202;-70
2022/02/05 11:27:51;;;;;;;0.53;0.53;;;;;;;7.06;64.82;96959.84;5038099;28;20221;-70
2022/02/05 11:30:42;;;;;;;8.70;0.67;;;;;;;7.04;63.15;96961.75;5036882;28;20770;-70
2022/02/05 11:33:21;;;;;;;1.70;1.00;;;;;;;6.88;63.15;96959.69;5037485;28;20237;-70
2022/02/05 11:36:39;;;;;;;2.50;1.30;;;;;;;6.75;63.84;96953.06;5037389;28;20283;-71
2022/02/05 11:38:57;;;;;;;2.00;0.77;;;;;;;6.62;63.35;96963.00;5037341;28;20228;-69
2022/02/05 11:41:27;;;;;;;0.83;0.63;;;;;;;6.90;63.32;96965.63;5037574;28;20320;-69
2022/02/05 11:44:24;;;;;;;2.90;1.17;;;;;;;7.04;63.55;96961.75;5036735;28;20231;-70
2022/02/05 11:47:26;;;;;;;0.80;0.80;;;;;;;7.37;63.22;96957.75;5037117;28;20217;-70
2022/02/05 11:50:33;;;;;;;4.53;1.03;;;;;;;7.13;63.23;96958.31;5037489;28;20224;-70
2022/02/05 11:53:01;;;;;;;1.60;0.80;;;;;;;7.19;63.88;96950.72;5035596;28;20665;-70
2022/02/05 11:55:33;;;;;;;2.40;1.93;;;;;;;7.42;63.32;96945.06;5037388;28;21027;-72
2022/02/05 11:58:04;;;;;;;0.70;0.70;;;;;;;6.94;63.67;96953.09;5038131;28;21110;-68
2022/02/05 12:00:32;;;;;;;1.27;1.17;;;;;;;6.89;63.92;96956.13;5039216;28;20207;-69
2022/02/05 12:03:01;;;;;;;0.90;0.73;;;;;;;6.74;63.20;96949.63;5038797;28;20229;-69
2022/02/05 12:05:32;;;;;;;0.73;0.53;;;;;;;7.08;64.24;96945.63;5039687;28;20197;-68
2022/02/05 12:08:22;;;;;;;0.50;0.50;;;;;;;7.34;63.84;96947.56;5038726;28;21192;-68
2022/02/05 12:10:51;;;;;;;0.60;0.60;;;;;;;7.45;62.77;96941.31;5038395;28;20243;-69
2022/02/05 12:13:22;;;;;;;0.83;0.80;;;;;;;7.63;62.27;96939.63;5037138;28;20270;-69
2022/02/05 12:16:11;;;;;;;1.10;0.70;;;;;;;7.31;62.47;96945.19;5038760;28;20662;-69
2022/02/05 12:18:58;;;;;;;2.30;0.87;;;;;;;7.56;62.46;96936.75;5038627;28;20228;-69
2022/02/05 12:21:30;;;;;;;0.73;0.50;;;;;;;7.46;61.26;96938.56;5038087;28;20205;-69
2022/02/05 12:24:33;;;;;;;1.53;0.73;;;;;;;7.44;61.61;96931.78;5038211;28;20290;-69
2022/02/05 12:27:01;;;;;;;0.60;0.60;;;;;;;7.37;60.90;96934.16;5038463;28;20200;-69
2022/02/05 12:29:33;;;;;;;3.37;1.20;;;;;;;7.36;61.75;96929.06;5038538;28;20232;-68
2022/02/05 12:32:01;;;;;;;0.23;0.23;;;;;;;7.23;62.93;96922.44;5037588;28;20712;-69
2022/02/05 12:34:36;;;;;;;0.47;0.47;;;;;;;7.28;61.27;96924.50;5037566;28;20684;-69
2022/02/05 12:37:04;;;;;;;0.50;0.50;;;;;;;7.40;63.12;96925.19;5038307;28;20653;-69
2022/02/05 12:39:33;;;;;;;1.60;0.87;;;;;;;7.30;62.60;96917.31;5039705;28;20929;-69
2022/02/05 12:42:02;;;;;;;1.70;0.83;;;;;;;7.43;61.82;96914.41;5038553;28;20558;-69
2022/02/05 12:44:31;;;;;;;0.77;0.77;;;;;;;7.46;61.94;96906.28;5037760;28;20316;-68
2022/02/05 12:47:02;;;;;;;2.43;1.10;;;;;;;7.55;61.78;96908.03;5037116;28;20213;-68
2022/02/05 12:49:34;;;;;;;0.50;0.47;;;;;;;7.53;61.87;96909.97;5037347;28;21290;-69
2022/02/05 12:52:02;;;;;;;0.40;0.40;;;;;;;7.51;62.95;96902.25;5037943;28;20197;-69
2022/02/05 12:54:30;;;;;;;1.17;0.83;;;;;;;7.51;62.46;96897.00;5036910;28;20200;-69
2022/02/05 12:56:58;;;;;;;2.33;1.20;;;;;;;7.42;60.91;96897.00;5037600;28;20205;-69
2022/02/05 12:59:31;;;;;;;3.43;0.83;;;;;;;7.75;61.97;96893.88;5037539;28;20229;-69
2022/02/05 13:01:59;;;;;;;3.97;0.87;;;;;;;7.69;61.25;96890.03;5037404;28;20197;-69
2022/02/05 13:04:27;;;;;;;4.60;0.90;;;;;;;7.65;59.97;96882.59;5036649;28;20232;-68
2022/02/05 13:07:03;;;;;;;1.20;0.57;;;;;;;7.73;59.85;96883.53;5037898;28;20497;-69
2022/02/05 13:09:31;;;;;;;1.53;1.03;;;;;;;7.91;60.39;96884.41;5036785;28;20236;-69
2022/02/05 13:12:01;;;;;;;3.03;0.60;;;;;;;7.94;60.03;96889.38;5036222;28;20201;-69
2022/02/05 13:14:39;;;;;;;1.00;0.80;;;;;;;8.32;60.00;96889.22;5033354;28;21327;-69
2022/02/05 13:17:09;;;;;;;2.30;1.10;;;;;;;7.97;60.00;96891.72;5036688;28;20201;-68
2022/02/05 13:19:54;;;;;;;1.13;0.50;;;;;;;7.56;60.21;96886.91;5035602;28;20225;-68
2022/02/05 13:25:33;;;;;;;1.57;0.77;;;;;;;7.72;60.04;96894.19;5036204;28;20231;-69
2022/02/05 13:28:08;;;;;;;0.87;0.60;;;;;;;7.90;59.22;96888.00;5034305;28;20721;-69
2022/02/05 13:33:44;;;;;;;1.37;0.90;;;;;;;8.29;59.23;96889.50;5034926;28;20713;-69
2022/02/05 13:36:15;;;;;;;3.30;0.83;;;;;;;8.11;59.51;96891.25;5031151;28;20205;-69